Time;durP1;ratioP1;P1;durP2;ratioP2;P2;SDS_P1;SDS_P2;PMS_P1;PMS_P2;Temp;Humidity;BMP_temperature;BMP_pressure;BME280_temperature;BME280_humidity;BME280_pressure;Samples;Min_cycle;Max_cycle;Signal;HPM_P1;HPM_P2
2023/04/07 00:02:10;;;;;;;80.95;33.33;;;10.90;99.90;;;;;;4928964;29;20030;-69
2023/04/07 00:04:35;;;;;;;65.50;30.35;;;10.80;99.90;;;;;;4925153;28;20028;-70
2023/04/07 00:07:01;;;;;;;82.03;34.90;;;10.80;99.90;;;;;;4931523;29;20106;-71
2023/04/07 00:09:26;;;;;;;103.45;38.67;;;10.80;99.90;;;;;;4923345;29;20107;-70
2023/04/07 00:11:52;;;;;;;70.25;32.38;;;10.80;99.90;;;;;;4928586;29;20416;-70
2023/04/07 00:14:18;;;;;;;90.22;36.53;;;10.80;99.90;;;;;;4928300;29;20030;-70
2023/04/07 00:16:43;;;;;;;110.88;41.35;;;10.80;99.90;;;;;;4936287;29;20075;-69
2023/04/07 00:19:09;;;;;;;91.75;36.28;;;10.90;99.90;;;;;;4928917;29;20070;-69
2023/04/07 00:21:34;;;;;;;91.78;36.17;;;10.80;99.90;;;;;;4928914;29;20473;-69
2023/04/07 00:24:00;;;;;;;87.78;36.50;;;10.80;99.90;;;;;;4928314;29;20074;-70
2023/04/07 00:26:30;;;;;;;90.53;36.38;;;10.90;99.90;;;;;;4930448;29;20031;-69
2023/04/07 00:28:56;;;;;;;83.78;34.08;;;10.90;99.90;;;;;;4931082;29;20405;-69
2023/04/07 00:31:22;;;;;;;86.85;33.50;;;10.90;99.90;;;;;;4929237;29;20024;-69
2023/04/07 00:33:48;;;;;;;76.53;34.83;;;10.90;99.90;;;;;;4930583;29;20103;-70
2023/04/07 00:36:14;;;;;;;78.65;34.92;;;10.90;99.90;;;;;;4926096;29;20028;-69
2023/04/07 00:38:39;;;;;;;78.70;33.70;;;10.90;99.90;;;;;;4929971;29;20940;-70
2023/04/07 00:41:05;;;;;;;82.25;35.55;;;10.80;99.90;;;;;;4929178;29;20044;-69
2023/04/07 00:43:31;;;;;;;81.68;33.80;;;10.90;99.90;;;;;;4928340;29;20028;-71
2023/04/07 00:45:57;;;;;;;60.95;28.50;;;10.80;99.90;;;;;;4929889;29;20519;-71
2023/04/07 00:48:22;;;;;;;74.47;32.33;;;10.80;99.90;;;;;;4924342;29;20028;-69
2023/04/07 00:50:49;;;;;;;81.05;33.85;;;10.80;99.90;;;;;;4925028;29;20531;-70
2023/04/07 00:53:15;;;;;;;65.55;30.42;;;10.80;99.90;;;;;;4928398;29;20031;-71
2023/04/07 00:55:41;;;;;;;67.80;29.70;;;10.90;99.90;;;;;;4924870;29;20066;-70
2023/04/07 00:58:06;;;;;;;65.18;31.10;;;10.80;99.90;;;;;;4931880;29;20412;-73
2023/04/07 01:00:49;;;;;;;61.08;26.73;;;10.80;99.90;;;;;;4932803;29;20115;-70
2023/04/07 01:03:17;;;;;;;;;;;10.80;99.90;;;;;;4928583;29;20040;-73
2023/04/07 01:05:54;;;;;;;69.25;30.75;;;10.90;99.90;;;;;;4925785;29;19938;-74
2023/04/07 01:08:26;;;;;;;63.28;26.65;;;10.90;99.90;;;;;;4926083;29;20032;-73
2023/04/07 01:11:04;;;;;;;55.75;25.35;;;10.90;99.90;;;;;;4929061;29;20498;-73
2023/04/07 01:13:44;;;;;;;39.05;21.55;;;10.90;99.90;;;;;;4927283;29;20039;-72
2023/04/07 01:16:15;;;;;;;55.72;24.42;;;10.90;99.90;;;;;;4929839;29;20095;-73
2023/04/07 01:18:46;;;;;;;49.35;22.63;;;10.90;99.90;;;;;;4931961;29;20114;-72
2023/04/07 01:21:17;;;;;;;49.55;22.20;;;10.90;99.90;;;;;;4934071;29;20020;-75
2023/04/07 01:23:46;;;;;;;53.22;23.60;;;10.90;99.90;;;;;;4934377;29;20058;-70
2023/04/07 01:26:29;;;;;;;55.88;23.77;;;10.90;99.90;;;;;;4926040;29;20028;-74
2023/04/07 01:29:22;;;;;;;59.85;26.02;;;10.90;99.90;;;;;;4930303;29;20521;-74
2023/04/07 01:31:49;;;;;;;56.03;24.73;;;10.90;99.90;;;;;;4928337;29;20036;-72
2023/04/07 01:34:17;;;;;;;55.15;24.63;;;10.80;99.90;;;;;;4929326;29;20024;-74
2023/04/07 01:36:44;;;;;;;59.30;25.05;;;10.80;99.90;;;;;;4925261;29;20514;-74
2023/04/07 01:39:11;;;;;;;66.65;25.90;;;10.70;99.90;;;;;;4925732;29;20139;-69
2023/04/07 01:41:38;;;;;;;54.35;24.90;;;10.80;99.90;;;;;;4932509;29;20102;-70
2023/04/07 01:44:05;;;;;;;58.88;24.65;;;10.70;99.90;;;;;;4918476;29;20032;-70
2023/04/07 01:46:31;;;;;;;52.60;25.00;;;10.70;99.90;;;;;;4928167;29;20028;-70
2023/04/07 01:48:57;;;;;;;48.75;23.70;;;10.70;99.90;;;;;;4927848;29;20110;-70
2023/04/07 01:51:26;;;;;;;57.38;26.65;;;10.70;99.90;;;;;;4928028;29;20082;-71
2023/04/07 01:53:52;;;;;;;58.50;24.48;;;10.70;99.90;;;;;;4931930;29;20027;-69
2023/04/07 01:56:17;;;;;;;64.88;27.80;;;10.70;99.90;;;;;;4921392;29;20389;-69
2023/04/07 01:58:43;;;;;;;61.88;28.90;;;10.80;99.90;;;;;;4923890;29;20382;-69
2023/04/07 02:01:08;;;;;;;67.53;27.50;;;10.80;99.90;;;;;;4925065;29;20406;-69
2023/04/07 02:03:49;;;;;;;81.18;32.38;;;10.80;99.90;;;;;;4924826;29;20489;-69
2023/04/07 02:06:19;;;;;;;77.55;30.10;;;10.80;99.90;;;;;;4928952;29;20381;-70
2023/04/07 02:08:48;;;;;;;76.00;30.92;;;10.80;99.90;;;;;;4924616;29;20020;-69
2023/04/07 02:11:17;;;;;;;89.38;33.00;;;10.90;99.90;;;;;;4921033;29;20077;-70
2023/04/07 02:13:44;;;;;;;76.50;33.83;;;10.90;99.90;;;;;;4929517;29;20032;-70
2023/04/07 02:16:12;;;;;;;73.80;29.95;;;10.90;99.90;;;;;;4930959;29;20031;-69
2023/04/07 02:18:39;;;;;;;86.53;34.00;;;10.90;99.90;;;;;;4930219;29;20027;-69
2023/04/07 02:21:07;;;;;;;97.57;37.58;;;10.90;99.90;;;;;;4933364;29;20036;-69
2023/04/07 02:23:34;;;;;;;96.93;36.60;;;10.90;99.90;;;;;;4929300;29;20052;-69
2023/04/07 02:26:00;;;;;;;100.70;39.63;;;10.90;99.90;;;;;;4930123;29;20477;-69
2023/04/07 02:28:26;;;;;;;92.43;39.00;;;10.90;99.90;;;;;;4924813;29;20039;-69
2023/04/07 02:30:51;;;;;;;91.05;38.22;;;10.90;99.90;;;;;;4930699;29;20074;-69
2023/04/07 02:33:17;;;;;;;112.00;43.92;;;10.90;99.90;;;;;;4933980;29;20681;-69
2023/04/07 02:35:43;;;;;;;104.22;42.35;;;10.90;99.90;;;;;;4927540;29;20031;-70
2023/04/07 02:38:08;;;;;;;102.25;41.22;;;10.90;99.90;;;;;;4933037;28;20034;-70
2023/04/07 02:40:35;;;;;;;102.68;39.80;;;10.90;99.90;;;;;;4931163;29;20047;-69
2023/04/07 02:43:01;;;;;;;96.03;40.97;;;10.90;99.90;;;;;;4930868;29;20055;-69
2023/04/07 02:45:27;;;;;;;82.53;37.58;;;10.90;99.90;;;;;;4932229;29;20055;-69
2023/04/07 02:47:52;;;;;;;70.05;31.02;;;10.90;99.90;;;;;;4929674;29;20470;-69
2023/04/07 02:50:18;;;;;;;83.70;36.10;;;10.80;99.90;;;;;;4930025;28;20036;-69
2023/04/07 02:52:44;;;;;;;76.65;33.22;;;10.80;99.90;;;;;;4930025;29;20024;-70
2023/04/07 02:55:10;;;;;;;54.25;29.40;;;10.80;99.90;;;;;;4937184;29;20122;-70
2023/04/07 02:57:35;;;;;;;62.22;28.50;;;10.80;99.90;;;;;;4935844;29;20469;-70
2023/04/07 03:00:01;;;;;;;52.58;25.60;;;10.80;99.90;;;;;;4928704;29;20175;-69
2023/04/07 03:02:27;;;;;;;52.38;25.23;;;10.80;99.90;;;;;;4931989;29;20074;-70
2023/04/07 03:04:52;;;;;;;40.35;22.00;;;10.70;99.90;;;;;;4930163;29;20035;-69
2023/04/07 03:07:18;;;;;;;55.65;24.30;;;10.70;99.90;;;;;;4927581;29;20119;-69
2023/04/07 03:09:44;;;;;;;53.10;26.13;;;10.80;99.90;;;;;;4924217;29;20130;-70
2023/04/07 03:12:10;;;;;;;47.45;22.75;;;10.70;99.90;;;;;;4930076;29;20055;-70
2023/04/07 03:14:36;;;;;;;37.63;20.88;;;10.80;99.90;;;;;;4934369;29;20023;-70
2023/04/07 03:17:02;;;;;;;37.58;20.45;;;10.80;99.90;;;;;;4930235;29;20039;-70
2023/04/07 03:19:28;;;;;;;44.15;20.80;;;10.70;99.90;;;;;;4923491;29;20068;-69
2023/04/07 03:21:54;;;;;;;39.22;20.85;;;10.70;99.90;;;;;;4928479;29;20445;-70
2023/04/07 03:24:19;;;;;;;41.75;21.15;;;10.60;99.90;;;;;;4937025;28;20038;-71
2023/04/07 03:26:45;;;;;;;36.50;19.45;;;10.70;99.90;;;;;;4938396;29;20024;-70
2023/04/07 03:29:10;;;;;;;30.25;17.08;;;10.70;99.90;;;;;;4928707;29;20047;-71
2023/04/07 03:31:36;;;;;;;40.10;19.23;;;10.60;99.90;;;;;;4929495;29;20025;-75
2023/04/07 03:34:03;;;;;;;37.85;19.40;;;10.60;99.90;;;;;;4929457;29;20036;-70
2023/04/07 03:36:30;;;;;;;38.75;18.40;;;10.60;99.90;;;;;;4930445;29;20970;-70
2023/04/07 03:38:56;;;;;;;38.88;19.10;;;10.60;99.90;;;;;;4932458;29;20032;-70
2023/04/07 03:41:22;;;;;;;44.53;17.65;;;10.60;99.90;;;;;;4927499;29;20388;-70
2023/04/07 03:43:47;;;;;;;27.75;15.73;;;10.60;99.90;;;;;;4927770;29;20031;-71
2023/04/07 03:46:13;;;;;;;24.30;15.23;;;10.50;99.90;;;;;;4924122;29;20533;-70
2023/04/07 03:48:39;;;;;;;32.30;15.95;;;10.60;99.90;;;;;;4930828;29;20027;-70
2023/04/07 03:51:05;;;;;;;38.78;17.63;;;10.60;99.90;;;;;;4925381;29;20398;-71
2023/04/07 03:53:31;;;;;;;33.20;17.92;;;10.60;99.90;;;;;;4929219;29;20032;-70
2023/04/07 03:55:57;;;;;;;31.67;18.45;;;10.60;99.90;;;;;;4929811;28;20108;-70
2023/04/07 03:58:22;;;;;;;33.13;17.83;;;10.60;99.90;;;;;;4926970;29;20471;-70
2023/04/07 04:00:48;;;;;;;36.33;19.38;;;10.60;99.90;;;;;;4925899;29;20043;-70
2023/04/07 04:03:14;;;;;;;33.35;18.58;;;10.60;99.90;;;;;;4922292;29;20551;-70
2023/04/07 04:05:39;;;;;;;37.38;18.90;;;10.50;99.90;;;;;;4928199;28;20138;-70
2023/04/07 04:08:05;;;;;;;35.58;18.92;;;10.50;99.90;;;;;;4922318;29;20163;-70
2023/04/07 04:10:31;;;;;;;36.70;19.40;;;10.50;99.90;;;;;;4923846;29;20481;-71
2023/04/07 04:12:59;;;;;;;42.22;19.55;;;10.50;99.90;;;;;;4920268;29;20020;-70
2023/04/07 04:15:25;;;;;;;44.83;21.10;;;10.40;99.90;;;;;;4925988;29;20112;-69
2023/04/07 04:17:51;;;;;;;50.75;22.65;;;10.40;99.90;;;;;;4924636;29;20078;-70
2023/04/07 04:20:17;;;;;;;47.88;21.77;;;10.40;99.90;;;;;;4929867;29;20056;-70
2023/04/07 04:22:42;;;;;;;45.35;23.40;;;10.40;99.90;;;;;;4927093;29;20039;-70
2023/04/07 04:25:08;;;;;;;50.63;23.55;;;10.40;99.90;;;;;;4928132;29;20618;-70
2023/04/07 04:27:34;;;;;;;50.38;25.20;;;10.30;99.90;;;;;;4928769;29;20028;-70
2023/04/07 04:30:00;;;;;;;49.00;24.02;;;10.30;99.90;;;;;;4930295;29;20135;-73
2023/04/07 04:32:25;;;;;;;53.30;24.42;;;10.30;99.90;;;;;;4926624;29;20048;-70
2023/04/07 04:34:51;;;;;;;52.25;26.70;;;10.20;99.90;;;;;;4925132;29;20056;-70
2023/04/07 04:37:17;;;;;;;53.33;24.55;;;10.30;99.90;;;;;;4931082;29;20109;-70
2023/04/07 04:39:42;;;;;;;58.80;27.63;;;10.20;99.90;;;;;;4928713;29;20032;-70
2023/04/07 04:42:08;;;;;;;53.50;24.10;;;10.10;99.90;;;;;;4926264;29;20470;-69
2023/04/07 04:44:34;;;;;;;54.40;24.92;;;10.00;99.90;;;;;;4922335;29;20032;-69
2023/04/07 04:46:59;;;;;;;59.63;26.85;;;10.00;99.90;;;;;;4929615;29;20055;-70
2023/04/07 04:49:25;;;;;;;60.83;26.63;;;10.00;99.90;;;;;;4921721;29;20036;-71
2023/04/07 04:51:51;;;;;;;53.00;25.52;;;10.00;99.90;;;;;;4924182;29;20032;-70
2023/04/07 04:54:19;;;;;;;50.85;24.05;;;10.00;99.90;;;;;;4921113;29;20027;-70
2023/04/07 04:56:45;;;;;;;52.67;23.50;;;10.00;99.90;;;;;;4926726;29;20064;-71
2023/04/07 04:59:10;;;;;;;42.22;21.77;;;10.00;99.90;;;;;;4925339;29;20039;-71
2023/04/07 05:01:36;;;;;;;47.67;21.60;;;10.00;99.90;;;;;;4928876;29;20017;-73
2023/04/07 05:04:02;;;;;;;44.53;21.38;;;10.00;99.90;;;;;;4931073;29;20030;-73
2023/04/07 05:06:27;;;;;;;47.67;22.10;;;10.00;99.90;;;;;;4927919;29;20055;-69
2023/04/07 05:08:53;;;;;;;47.17;22.10;;;10.00;99.90;;;;;;4930118;29;20083;-69
2023/04/07 05:11:20;;;;;;;55.10;23.17;;;9.90;99.90;;;;;;4928918;29;20389;-70
2023/04/07 05:13:46;;;;;;;50.88;21.63;;;10.00;99.90;;;;;;4933053;29;20035;-69
2023/04/07 05:16:11;;;;;;;57.35;24.77;;;9.80;99.90;;;;;;4925431;29;20028;-71
2023/04/07 05:18:37;;;;;;;54.90;25.33;;;9.90;99.90;;;;;;4930743;29;20573;-71
2023/04/07 05:21:03;;;;;;;59.55;27.25;;;9.90;99.90;;;;;;4923687;29;20429;-71
2023/04/07 05:23:28;;;;;;;71.50;28.88;;;9.90;99.90;;;;;;4931106;29;20030;-73
2023/04/07 05:25:54;;;;;;;74.43;29.40;;;9.90;99.90;;;;;;4921305;29;20032;-72
2023/04/07 05:28:20;;;;;;;75.70;31.23;;;9.90;99.90;;;;;;4930150;29;20051;-71
2023/04/07 05:30:47;;;;;;;75.45;30.00;;;10.00;99.90;;;;;;4925433;29;20032;-71
2023/04/07 05:33:12;;;;;;;70.85;29.50;;;9.90;99.90;;;;;;4927621;29;20054;-71
2023/04/07 05:35:38;;;;;;;88.60;33.65;;;9.90;99.90;;;;;;4931297;28;20059;-72
2023/04/07 05:38:04;;;;;;;86.63;32.28;;;10.00;99.90;;;;;;4928606;29;20032;-71
2023/04/07 05:40:30;;;;;;;94.15;33.05;;;10.00;99.90;;;;;;4922689;29;20430;-71
2023/04/07 05:42:55;;;;;;;92.18;33.05;;;10.00;99.90;;;;;;4928646;28;20062;-71
2023/04/07 05:45:21;;;;;;;92.63;34.53;;;10.00;99.90;;;;;;4930835;29;20042;-71
2023/04/07 05:47:48;;;;;;;90.90;35.53;;;10.10;99.90;;;;;;4926905;29;20012;-71
2023/04/07 05:50:18;;;;;;;101.30;36.88;;;10.10;99.90;;;;;;4926552;29;20078;-70
2023/04/07 05:52:43;;;;;;;89.20;34.97;;;10.10;99.90;;;;;;4926758;28;20098;-71
2023/04/07 05:55:09;;;;;;;95.80;35.30;;;10.10;99.90;;;;;;4930036;29;20477;-71
2023/04/07 05:57:35;;;;;;;85.95;33.72;;;10.00;99.90;;;;;;4924183;29;20058;-71
2023/04/07 06:00:01;;;;;;;77.90;34.65;;;10.00;99.90;;;;;;4925393;29;20060;-71
2023/04/07 06:02:26;;;;;;;95.85;35.90;;;10.00;99.90;;;;;;4930981;29;20070;-71
2023/04/07 06:04:52;;;;;;;87.70;35.42;;;10.10;99.90;;;;;;4929006;29;20043;-71
2023/04/07 06:07:18;;;;;;;79.60;31.95;;;10.10;99.90;;;;;;4939780;28;20102;-71
2023/04/07 06:09:43;;;;;;;98.43;36.20;;;10.00;99.90;;;;;;4926560;29;20044;-71
2023/04/07 06:12:11;;;;;;;89.50;35.30;;;10.10;99.90;;;;;;4926333;29;20016;-71
2023/04/07 06:14:37;;;;;;;88.82;32.67;;;10.10;99.90;;;;;;4923906;29;20046;-71
2023/04/07 06:17:03;;;;;;;83.22;34.13;;;10.20;99.90;;;;;;4921114;29;20050;-71
2023/04/07 06:19:28;;;;;;;85.50;35.42;;;10.20;99.90;;;;;;4924287;29;20136;-72
2023/04/07 06:21:54;;;;;;;87.43;33.47;;;10.20;99.90;;;;;;4929742;29;20047;-71
2023/04/07 06:24:21;;;;;;;71.95;31.85;;;10.20;99.90;;;;;;4924757;29;20075;-71
2023/04/07 06:26:47;;;;;;;82.15;33.28;;;10.20;99.90;;;;;;4927265;29;20564;-78
2023/04/07 06:29:13;;;;;;;88.25;34.47;;;10.20;99.90;;;;;;4941106;29;20047;-77
2023/04/07 06:31:39;;;;;;;81.68;33.90;;;10.20;99.90;;;;;;4926625;29;20354;-77
2023/04/07 06:34:05;;;;;;;81.75;34.78;;;10.20;99.90;;;;;;4932398;29;20114;-77
2023/04/07 06:36:32;;;;;;;75.22;33.05;;;10.20;99.90;;;;;;4922338;29;20035;-76
2023/04/07 06:38:58;;;;;;;82.25;34.90;;;10.30;99.90;;;;;;4927445;29;21094;-77
2023/04/07 06:41:24;;;;;;;96.13;38.33;;;10.40;99.90;;;;;;4925477;29;20039;-79
2023/04/07 06:43:50;;;;;;;80.18;33.25;;;10.40;99.90;;;;;;4926823;29;20024;-78
2023/04/07 06:46:16;;;;;;;75.50;33.85;;;10.40;99.90;;;;;;4927719;29;20035;-79
2023/04/07 06:48:42;;;;;;;80.53;34.85;;;10.40;99.90;;;;;;4929620;29;20036;-79
2023/04/07 06:51:07;;;;;;;93.30;36.97;;;10.40;99.90;;;;;;4929733;29;20020;-78
2023/04/07 06:53:33;;;;;;;78.90;33.65;;;10.40;99.90;;;;;;4924227;29;20039;-79
2023/04/07 06:56:07;;;;;;;76.10;32.67;;;10.50;99.90;;;;;;4929827;29;20106;-78
2023/04/07 06:58:34;;;;;;;74.35;33.70;;;10.50;99.90;;;;;;4927965;29;20055;-78
2023/04/07 07:01:00;;;;;;;68.28;30.83;;;10.50;99.90;;;;;;4926915;29;20060;-79
2023/04/07 07:03:28;;;;;;;71.20;34.00;;;10.50;99.90;;;;;;4932898;29;20055;-80
2023/04/07 07:05:57;;;;;;;73.60;31.30;;;10.50;99.90;;;;;;4932148;29;20028;-77
2023/04/07 07:08:24;;;;;;;71.88;31.77;;;10.50;99.90;;;;;;4935214;29;20104;-75
2023/04/07 07:10:50;;;;;;;76.72;33.17;;;10.60;99.90;;;;;;4924751;29;20091;-76
2023/04/07 07:13:17;;;;;;;41.90;21.65;;;10.60;99.90;;;;;;4929244;29;20031;-74
2023/04/07 07:15:42;;;;;;;64.97;28.98;;;10.70;99.90;;;;;;4931932;29;20102;-77
2023/04/07 07:18:08;;;;;;;67.25;29.92;;;10.70;99.90;;;;;;4931947;29;20107;-75
2023/04/07 07:20:34;;;;;;;61.72;26.08;;;10.70;99.90;;;;;;4929877;29;20028;-68
2023/04/07 07:22:59;;;;;;;52.90;25.95;;;10.70;99.90;;;;;;4926637;29;20031;-72
2023/04/07 07:25:26;;;;;;;61.53;26.80;;;10.70;99.90;;;;;;4928274;29;20032;-70
2023/04/07 07:27:52;;;;;;;56.88;26.98;;;10.70;99.90;;;;;;4933049;29;20476;-71
2023/04/07 07:30:20;;;;;;;58.88;26.73;;;10.80;99.90;;;;;;4932167;29;20051;-69
2023/04/07 07:32:46;;;;;;;49.95;24.40;;;10.80;99.90;;;;;;4933903;28;20115;-70
2023/04/07 07:35:12;;;;;;;53.10;25.52;;;10.80;99.90;;;;;;4928232;29;20107;-76
2023/04/07 07:37:37;;;;;;;51.13;24.95;;;10.90;99.90;;;;;;4935521;29;20042;-77
2023/04/07 07:40:03;;;;;;;53.60;25.15;;;11.00;99.90;;;;;;4936551;29;20461;-79
2023/04/07 07:42:30;;;;;;;45.17;23.98;;;11.00;99.90;;;;;;4932592;29;20028;-74
2023/04/07 07:44:56;;;;;;;50.60;24.95;;;11.00;99.90;;;;;;4933388;29;20028;-78
2023/04/07 07:47:22;;;;;;;48.80;23.33;;;11.00;99.90;;;;;;4933338;29;20434;-78
2023/04/07 07:49:48;;;;;;;45.38;23.98;;;11.00;99.90;;;;;;4936129;29;20126;-78
2023/04/07 07:52:14;;;;;;;46.47;22.65;;;11.10;99.90;;;;;;4934923;29;20401;-75
2023/04/07 07:54:40;;;;;;;44.30;21.35;;;11.20;99.90;;;;;;4930509;29;20019;-75
2023/04/07 07:57:05;;;;;;;38.67;20.02;;;11.20;99.90;;;;;;4938165;29;20452;-78
2023/04/07 07:59:31;;;;;;;37.40;20.33;;;11.20;99.90;;;;;;4935824;29;20470;-76
2023/04/07 08:01:57;;;;;;;40.38;19.33;;;11.20;99.90;;;;;;4935160;29;20581;-74
2023/04/07 08:04:23;;;;;;;34.58;17.33;;;11.20;99.90;;;;;;4929228;29;20039;-78
2023/04/07 08:06:50;;;;;;;30.20;16.42;;;11.10;99.90;;;;;;4931589;29;20034;-74
2023/04/07 08:09:17;;;;;;;29.98;16.60;;;11.00;99.90;;;;;;4932892;29;20036;-68
2023/04/07 08:11:42;;;;;;;35.70;19.23;;;11.20;99.90;;;;;;4935440;29;20461;-70
2023/04/07 08:14:08;;;;;;;38.55;18.08;;;11.10;99.90;;;;;;4925216;29;20031;-70
2023/04/07 08:16:34;;;;;;;31.50;17.40;;;11.20;99.90;;;;;;4934963;29;20469;-71
2023/04/07 08:18:59;;;;;;;32.30;15.85;;;11.30;99.90;;;;;;4934478;29;20032;-71
2023/04/07 08:21:26;;;;;;;23.80;12.65;;;11.30;99.90;;;;;;4933632;29;20019;-72
2023/04/07 08:23:55;;;;;;;24.52;14.13;;;11.30;99.90;;;;;;4927997;29;20473;-72
2023/04/07 08:26:21;;;;;;;23.45;11.82;;;11.40;99.90;;;;;;4925182;29;20028;-75
2023/04/07 08:28:50;;;;;;;18.13;10.38;;;11.40;99.90;;;;;;4924416;29;20831;-75
2023/04/07 08:31:16;;;;;;;19.63;9.98;;;11.50;99.90;;;;;;4931467;29;20030;-74
2023/04/07 08:33:41;;;;;;;19.48;8.70;;;11.60;99.90;;;;;;4930974;29;20715;-75
2023/04/07 08:36:07;;;;;;;22.27;9.18;;;11.70;99.90;;;;;;4925637;29;20024;-78
2023/04/07 08:38:33;;;;;;;16.85;9.20;;;11.80;99.90;;;;;;4928149;29;20393;-73
2023/04/07 08:41:04;;;;;;;17.77;8.88;;;11.90;99.90;;;;;;4927197;29;20028;-77
2023/04/07 08:43:31;;;;;;;16.70;9.50;;;11.90;99.90;;;;;;4932787;29;20020;-79
2023/04/07 08:45:57;;;;;;;20.65;10.10;;;11.90;99.90;;;;;;4924571;29;20036;-75
2023/04/07 08:48:27;;;;;;;23.17;10.93;;;11.80;99.90;;;;;;4925867;29;20473;-76
2023/04/07 08:50:54;;;;;;;21.98;10.98;;;11.70;99.90;;;;;;4926277;29;20035;-76
2023/04/07 08:53:28;;;;;;;23.08;13.02;;;11.60;99.90;;;;;;4922676;29;20125;-78
2023/04/07 08:55:55;;;;;;;21.05;12.73;;;11.70;99.90;;;;;;4926278;29;20096;-78
2023/04/07 08:58:21;;;;;;;21.42;13.82;;;11.70;99.90;;;;;;4933554;29;20047;-75
2023/04/07 09:00:48;;;;;;;22.20;13.55;;;11.70;99.90;;;;;;4925736;29;20473;-77
2023/04/07 09:03:15;;;;;;;24.33;14.27;;;11.60;99.90;;;;;;4933309;29;20051;-77
2023/04/07 09:05:44;;;;;;;25.17;15.63;;;11.50;99.90;;;;;;4929821;29;20528;-81
2023/04/07 09:08:09;;;;;;;32.25;15.13;;;11.50;99.90;;;;;;4923469;29;20110;-79
2023/04/07 09:10:36;;;;;;;23.38;14.70;;;11.40;99.90;;;;;;4928193;29;20515;-80
2023/04/07 09:13:01;;;;;;;26.63;14.93;;;11.40;99.90;;;;;;4929067;29;20044;-75
2023/04/07 09:15:31;;;;;;;24.90;14.05;;;11.50;99.90;;;;;;4932548;29;20031;-81
2023/04/07 09:17:58;;;;;;;26.55;13.77;;;11.40;99.90;;;;;;4931063;29;20122;-81
2023/04/07 09:20:24;;;;;;;21.58;12.68;;;11.40;99.90;;;;;;4926500;29;20143;-76
2023/04/07 09:22:50;;;;;;;22.38;13.40;;;11.50;99.90;;;;;;4927271;29;20038;-80
2023/04/07 09:25:26;;;;;;;20.13;14.25;;;11.60;99.90;;;;;;4930734;29;20024;-79
2023/04/07 09:28:02;;;;;;;19.98;11.35;;;11.70;99.90;;;;;;4931424;29;20122;-76
2023/04/07 09:30:30;;;;;;;17.80;10.55;;;11.80;99.90;;;;;;4923288;29;20048;-76
2023/04/07 09:32:56;;;;;;;18.45;9.57;;;11.80;99.90;;;;;;4927008;29;20035;-78
2023/04/07 09:35:23;;;;;;;18.20;9.35;;;11.90;99.90;;;;;;4925221;29;20043;-75
2023/04/07 09:38:05;;;;;;;14.73;10.45;;;11.90;99.90;;;;;;4929505;29;20039;-75
2023/04/07 09:40:31;;;;;;;14.02;8.70;;;12.00;99.90;;;;;;4932270;29;20032;-75
2023/04/07 09:42:57;;;;;;;14.15;8.50;;;12.00;99.90;;;;;;4921785;29;20028;-78
2023/04/07 09:45:27;;;;;;;15.60;8.98;;;12.00;99.90;;;;;;4928354;29;20068;-81
2023/04/07 09:47:53;;;;;;;17.23;8.50;;;11.90;99.90;;;;;;4932136;29;20035;-79
2023/04/07 09:50:34;;;;;;;16.33;8.90;;;11.90;99.90;;;;;;4921913;29;20035;-75
2023/04/07 09:53:01;;;;;;;15.50;8.70;;;11.90;99.90;;;;;;4929356;29;20119;-80
2023/04/07 09:55:27;;;;;;;16.15;9.10;;;11.80;99.90;;;;;;4922557;29;20048;-70
2023/04/07 09:57:54;;;;;;;17.38;8.43;;;11.90;99.90;;;;;;4929855;28;20030;-72
2023/04/07 10:00:21;;;;;;;21.30;11.13;;;11.90;99.90;;;;;;4919597;29;20024;-70
2023/04/07 10:02:48;;;;;;;19.80;11.60;;;11.90;99.90;;;;;;4923645;29;20032;-71
2023/04/07 10:05:14;;;;;;;18.05;11.30;;;11.80;99.90;;;;;;4929848;29;20024;-70
2023/04/07 10:07:40;;;;;;;14.15;9.98;;;11.80;99.90;;;;;;4935403;29;20036;-70
2023/04/07 10:10:07;;;;;;;18.23;10.82;;;11.80;99.90;;;;;;4924124;29;20055;-71
2023/04/07 10:12:42;;;;;;;20.20;10.27;;;11.80;99.90;;;;;;4928014;29;20536;-77
2023/04/07 10:15:12;;;;;;;17.23;11.48;;;11.80;99.90;;;;;;4925066;29;20028;-70
2023/04/07 10:17:39;;;;;;;18.23;10.75;;;11.90;99.90;;;;;;4926720;29;20397;-70
2023/04/07 10:20:08;;;;;;;15.27;10.27;;;12.00;99.90;;;;;;4926973;29;20448;-70
2023/04/07 10:22:36;;;;;;;25.55;10.95;;;11.90;99.90;;;;;;4925425;29;20516;-70
2023/04/07 10:25:11;;;;;;;16.55;9.77;;;11.90;99.90;;;;;;4927235;29;20054;-71
2023/04/07 10:27:48;;;;;;;19.05;10.23;;;12.00;99.90;;;;;;4923860;29;20019;-70
2023/04/07 10:30:20;;;;;;;20.35;10.73;;;12.00;99.90;;;;;;4926863;29;20135;-71
2023/04/07 10:32:50;;;;;;;22.00;10.45;;;12.20;99.90;;;;;;4926716;29;20480;-74
2023/04/07 10:35:16;;;;;;;19.08;10.95;;;12.20;99.90;;;;;;4932327;29;20032;-70
2023/04/07 10:38:12;;;;;;;15.82;9.35;;;12.30;99.90;;;;;;4928383;29;20098;-70
2023/04/07 10:40:38;;;;;;;13.70;9.38;;;12.40;99.90;;;;;;4932171;29;20690;-73
2023/04/07 10:43:10;;;;;;;14.57;9.10;;;12.50;99.90;;;;;;4930715;29;20032;-72
2023/04/07 10:45:45;;;;;;;16.13;8.25;;;12.50;99.90;;;;;;4931558;29;20032;-78
2023/04/07 10:48:12;;;;;;;11.63;7.90;;;12.40;99.90;;;;;;4932787;29;20111;-73
2023/04/07 10:50:38;;;;;;;13.95;8.07;;;12.30;99.90;;;;;;4933569;29;20036;-72
2023/04/07 10:53:15;;;;;;;16.63;8.30;;;12.30;99.90;;;;;;4932522;29;20030;-71
2023/04/07 10:55:42;;;;;;;16.25;8.75;;;12.30;99.90;;;;;;4922940;29;20078;-71
2023/04/07 10:58:21;;;;;;;10.02;7.38;;;12.40;99.90;;;;;;4933879;29;20159;-71
2023/04/07 11:00:56;;;;;;;17.77;8.60;;;12.40;99.90;;;;;;4935006;29;20024;-72
2023/04/07 11:03:23;;;;;;;12.23;6.68;;;12.50;99.90;;;;;;4928999;29;20489;-73
2023/04/07 11:05:49;;;;;;;11.15;6.65;;;12.40;99.90;;;;;;4929333;29;20040;-73
2023/04/07 11:08:30;;;;;;;12.30;6.35;;;12.50;99.90;;;;;;4934760;29;20554;-72
2023/04/07 11:10:56;;;;;;;10.82;6.40;;;12.50;99.90;;;;;;4933445;29;20047;-71
2023/04/07 11:13:22;;;;;;;11.40;7.40;;;12.70;99.90;;;;;;4931347;29;20023;-71
2023/04/07 11:15:52;;;;;;;13.48;6.03;;;12.80;99.90;;;;;;4925570;29;20663;-72
2023/04/07 11:18:20;;;;;;;16.38;6.00;;;12.80;99.90;;;;;;4931228;29;20023;-71
2023/04/07 11:20:53;;;;;;;14.73;6.35;;;12.90;99.90;;;;;;4928011;29;20442;-73
2023/04/07 11:23:22;;;;;;;14.95;6.30;;;12.80;99.90;;;;;;4933864;29;20023;-73
2023/04/07 11:25:49;;;;;;;14.60;6.10;;;12.70;99.90;;;;;;4927260;29;20028;-74
2023/04/07 11:28:16;;;;;;;11.00;6.03;;;12.70;99.90;;;;;;4931809;29;20012;-73
2023/04/07 11:30:52;;;;;;;14.45;5.97;;;12.60;99.90;;;;;;4929044;29;20409;-72
2023/04/07 11:33:24;;;;;;;11.98;5.10;;;12.60;99.90;;;;;;4948661;28;20016;-75
2023/04/07 11:36:01;;;;;;;11.13;5.15;;;12.60;99.90;;;;;;4930219;29;20481;-70
2023/04/07 11:38:34;;;;;;;12.85;4.55;;;12.60;99.90;;;;;;4926005;29;20040;-74
2023/04/07 11:41:12;;;;;;;11.07;5.45;;;12.50;99.90;;;;;;4926850;29;20024;-74
2023/04/07 11:43:40;;;;;;;14.25;4.85;;;12.60;99.90;;;;;;4924631;29;20095;-72
2023/04/07 11:46:16;;;;;;;13.82;4.47;;;12.70;99.90;;;;;;4929627;29;20478;-74
2023/04/07 11:48:44;;;;;;;12.20;5.07;;;12.80;99.90;;;;;;4929419;29;20040;-76
2023/04/07 11:51:22;;;;;;;8.20;5.10;;;12.90;99.90;;;;;;4927227;29;20028;-73
2023/04/07 11:53:55;;;;;;;10.95;5.43;;;13.10;99.90;;;;;;4927511;29;20035;-80
2023/04/07 11:56:21;;;;;;;13.93;4.85;;;13.30;99.90;;;;;;4929151;29;20537;-73
2023/04/07 11:58:51;;;;;;;9.32;4.78;;;13.30;99.90;;;;;;4929080;29;20114;-73
2023/04/07 12:01:18;;;;;;;11.52;5.07;;;13.30;99.90;;;;;;4928603;29;20074;-74
2023/04/07 12:04:01;;;;;;;12.55;4.93;;;13.10;99.90;;;;;;4935268;29;20043;-73
2023/04/07 12:06:40;;;;;;;17.27;4.90;;;12.80;99.90;;;;;;4927063;29;20040;-73
2023/04/07 12:09:06;;;;;;;10.82;4.75;;;12.90;99.90;;;;;;4927905;29;20036;-73
2023/04/07 12:11:33;;;;;;;11.90;5.10;;;13.00;99.90;;;;;;4935516;29;20016;-76
2023/04/07 12:13:59;;;;;;;13.63;5.28;;;13.10;99.90;;;;;;4922615;29;20042;-75
2023/04/07 12:16:25;;;;;;;13.30;4.97;;;13.10;99.90;;;;;;4933913;29;20030;-78
2023/04/07 12:18:51;;;;;;;12.77;5.07;;;13.10;99.90;;;;;;4933310;29;20485;-72
2023/04/07 12:21:18;;;;;;;13.77;5.43;;;13.20;99.90;;;;;;4925321;29;20052;-73
2023/04/07 12:23:46;;;;;;;12.95;6.55;;;13.30;99.90;;;;;;4926824;29;20532;-72
2023/04/07 12:26:12;;;;;;;13.75;6.80;;;13.40;99.90;;;;;;4934679;29;20019;-73
2023/04/07 12:28:38;;;;;;;14.70;7.75;;;13.40;99.90;;;;;;4932950;29;20031;-72
2023/04/07 12:31:04;;;;;;;20.40;9.10;;;13.40;99.90;;;;;;4926693;29;20036;-73
2023/04/07 12:33:30;;;;;;;15.80;8.40;;;13.40;99.90;;;;;;4929278;29;20048;-72